createdAt,value
2023-02-16T00:00:39.307Z,9.65
2023-02-16T00:03:14.811Z,10.20
2023-02-16T00:05:48.265Z,10.23
2023-02-16T00:08:21.328Z,13.07
2023-02-16T00:11:11.594Z,12.00
2023-02-16T00:13:43.993Z,10.68
2023-02-16T00:16:18.794Z,10.23
2023-02-16T00:18:52.053Z,10.68
2023-02-16T00:21:24.442Z,9.45
2023-02-16T00:23:57.547Z,9.90
2023-02-16T00:26:33.868Z,7.15
2023-02-16T00:29:06.774Z,9.02
2023-02-16T00:31:39.405Z,8.70
2023-02-16T00:34:36.388Z,7.05
2023-02-16T00:37:10.604Z,6.90
2023-02-16T00:39:44.558Z,5.85
2023-02-16T00:42:20.565Z,5.00
2023-02-16T00:44:55.429Z,6.97
2023-02-16T00:47:32.331Z,8.18
2023-02-16T00:50:13.934Z,7.53
2023-02-16T00:52:47.748Z,8.60
2023-02-16T00:55:23.053Z,9.05
2023-02-16T00:58:01.397Z,7.30
2023-02-16T01:00:36.334Z,8.88
2023-02-16T01:03:14.188Z,9.05
2023-02-16T01:05:46.982Z,5.93
2023-02-16T01:08:38.212Z,5.55
2023-02-16T01:11:12.007Z,3.90
2023-02-16T01:13:48.634Z,5.43
2023-02-16T01:16:23.355Z,5.85
2023-02-16T01:18:55.756Z,4.20
2023-02-16T01:21:28.259Z,3.90
2023-02-16T01:24:00.957Z,5.07
2023-02-16T01:26:38.832Z,6.70
2023-02-16T01:31:47.788Z,4.53
2023-02-16T01:34:20.265Z,6.95
2023-02-16T01:36:52.669Z,8.93
2023-02-16T01:39:25.019Z,7.72
2023-02-16T01:42:11.207Z,8.32
2023-02-16T01:44:48.627Z,7.13
2023-02-16T01:47:36.125Z,6.45
2023-02-16T01:50:16.637Z,5.07
2023-02-16T01:52:55.396Z,6.20
2023-02-16T01:55:32.333Z,6.10
2023-02-16T01:58:11.465Z,5.22
2023-02-16T02:01:23.443Z,6.63
2023-02-16T02:04:14.162Z,7.85
2023-02-16T02:06:47.146Z,7.43
2023-02-16T02:09:25.874Z,7.53
2023-02-16T02:12:06.052Z,7.85
2023-02-16T02:14:40.399Z,5.97
2023-02-16T02:17:17.393Z,8.07
2023-02-16T02:19:56.824Z,5.93
2023-02-16T02:23:24.947Z,6.63
2023-02-16T02:26:43.451Z,5.65
2023-02-16T02:29:29.190Z,6.25
2023-02-16T02:32:10.886Z,5.30
2023-02-16T02:35:00.131Z,8.43
2023-02-16T02:37:44.117Z,8.23
2023-02-16T02:40:29.873Z,7.40
2023-02-16T02:43:11.141Z,8.25
2023-02-16T02:45:49.443Z,6.22
2023-02-16T02:48:22.226Z,8.30
2023-02-16T02:51:16.104Z,8.60
2023-02-16T02:54:14.365Z,8.60
2023-02-16T03:00:12.963Z,6.55
2023-02-16T03:02:49.346Z,6.20
2023-02-16T03:05:25.755Z,7.80
2023-02-16T03:08:13.379Z,7.22
2023-02-16T03:11:07.333Z,6.90
2023-02-16T03:13:44.207Z,5.20
2023-02-16T03:16:21.393Z,7.38
2023-02-16T03:19:14.359Z,6.15
2023-02-16T03:22:04.792Z,10.27
2023-02-16T03:24:55.436Z,9.07
2023-02-16T03:27:51.642Z,5.95
2023-02-16T03:30:25.708Z,4.05
2023-02-16T03:32:58.180Z,6.35
2023-02-16T03:35:31.730Z,5.60
2023-02-16T03:38:04.763Z,5.88
2023-02-16T03:40:40.334Z,5.13
2023-02-16T03:43:12.695Z,5.00
2023-02-16T03:45:45.696Z,5.60
2023-02-16T03:48:18.253Z,4.32
2023-02-16T03:50:51.291Z,4.20
2023-02-16T03:53:23.701Z,4.70
2023-02-16T03:55:56.305Z,6.85
2023-02-16T03:58:28.766Z,6.28
2023-02-16T04:01:01.387Z,5.20
2023-02-16T04:03:33.789Z,6.03
2023-02-16T04:06:07.736Z,4.43
2023-02-16T04:08:40.063Z,5.30
2023-02-16T04:11:30.561Z,7.65
2023-02-16T04:14:02.887Z,6.10
2023-02-16T04:16:35.390Z,5.88
2023-02-16T04:19:07.832Z,5.90
2023-02-16T04:21:42.305Z,7.05
2023-02-16T04:24:14.677Z,4.95
2023-02-16T04:26:48.787Z,5.90
2023-02-16T04:29:21.136Z,3.85
2023-02-16T04:31:53.754Z,4.65
2023-02-16T04:34:26.160Z,5.68
2023-02-16T04:36:59.288Z,5.80
2023-02-16T04:39:31.911Z,5.80
2023-02-16T04:42:04.711Z,7.97
2023-02-16T04:44:37.032Z,5.85
2023-02-16T04:47:09.458Z,6.47
2023-02-16T04:49:41.840Z,8.43
2023-02-16T04:52:14.917Z,7.13
2023-02-16T04:54:47.381Z,6.90
2023-02-16T04:57:21.870Z,6.22
2023-02-16T04:59:54.609Z,4.72
2023-02-16T05:02:27.334Z,6.07
2023-02-16T05:04:59.692Z,4.22
2023-02-16T05:07:32.817Z,4.55
2023-02-16T05:10:06.502Z,7.13
2023-02-16T05:12:56.900Z,5.93
2023-02-16T05:15:29.265Z,5.45
2023-02-16T05:18:02.791Z,6.22
2023-02-16T05:21:05.091Z,4.88
2023-02-16T05:23:38.725Z,7.45
2023-02-16T05:26:11.069Z,7.55
2023-02-16T05:28:43.525Z,9.07
2023-02-16T05:31:15.970Z,10.77
2023-02-16T05:33:48.702Z,8.35
2023-02-16T05:36:21.329Z,7.45
2023-02-16T05:38:54.479Z,9.02
2023-02-16T05:41:26.981Z,7.63
2023-02-16T05:44:02.387Z,6.65
2023-02-16T05:46:36.570Z,6.38
2023-02-16T05:49:09.558Z,8.48
2023-02-16T05:51:42.032Z,8.70
2023-02-16T05:54:16.874Z,10.45
2023-02-16T05:56:51.377Z,9.60
2023-02-16T05:59:24.005Z,10.98
2023-02-16T06:01:56.406Z,10.68
2023-02-16T06:04:29.066Z,14.32
2023-02-16T06:07:02.104Z,16.80
2023-02-16T06:09:35.134Z,13.57
2023-02-16T06:12:07.634Z,12.00
2023-02-16T06:14:40.592Z,13.45
2023-02-16T06:17:12.973Z,11.18
2023-02-16T06:19:45.441Z,12.13
2023-02-16T06:22:17.784Z,11.65
2023-02-16T06:24:50.934Z,15.00
2023-02-16T06:27:23.636Z,16.10
2023-02-16T06:29:56.072Z,12.43
2023-02-16T06:32:28.638Z,15.75
2023-02-16T06:35:01.506Z,18.25
2023-02-16T06:37:33.861Z,14.68
2023-02-16T06:40:09.378Z,12.93
2023-02-16T06:42:41.869Z,13.85
2023-02-16T06:45:14.431Z,11.15
2023-02-16T06:47:46.801Z,12.25
2023-02-16T06:50:19.312Z,14.73
2023-02-16T06:52:51.714Z,16.55
2023-02-16T06:55:24.850Z,14.88
2023-02-16T06:57:57.203Z,16.92
2023-02-16T07:00:30.377Z,12.90
2023-02-16T07:03:02.981Z,13.32
2023-02-16T07:05:35.401Z,16.50
2023-02-16T07:08:07.959Z,13.25
2023-02-16T07:10:49.739Z,8.77
2023-02-16T07:13:22.887Z,10.32
2023-02-16T07:15:55.357Z,11.02
2023-02-16T07:18:27.838Z,11.65
2023-02-16T07:21:00.265Z,11.88
2023-02-16T07:23:32.837Z,13.20
2023-02-16T07:26:05.966Z,13.43
2023-02-16T07:28:38.535Z,14.85
2023-02-16T07:31:12.642Z,13.68
2023-02-16T07:33:45.512Z,13.95
2023-02-16T07:36:17.942Z,10.68
2023-02-16T07:38:51.026Z,11.88
2023-02-16T07:41:24.554Z,10.80
2023-02-16T07:43:57.078Z,10.75
2023-02-16T07:46:31.036Z,10.35
2023-02-16T07:49:05.200Z,10.23
2023-02-16T07:51:37.553Z,14.93
2023-02-16T07:54:10.235Z,16.17
2023-02-16T07:56:43.482Z,10.10
2023-02-16T07:59:16.139Z,10.93
2023-02-16T08:01:48.679Z,11.52
2023-02-16T08:04:21.138Z,10.55
2023-02-16T08:06:53.520Z,10.88
2023-02-16T08:09:26.446Z,11.02
2023-02-16T08:11:59.502Z,8.20
2023-02-16T08:14:31.874Z,6.30
2023-02-16T08:17:05.788Z,5.65
2023-02-16T08:19:38.765Z,5.15
2023-02-16T08:22:11.788Z,6.07
2023-02-16T08:24:44.291Z,7.07
2023-02-16T08:27:17.349Z,7.60
2023-02-16T08:29:49.918Z,6.57
2023-02-16T08:32:22.323Z,6.47
2023-02-16T08:34:55.770Z,5.88
2023-02-16T08:37:28.343Z,6.95
2023-02-16T08:40:02.014Z,7.03
2023-02-16T08:42:36.000Z,5.55
2023-02-16T08:45:09.371Z,7.78
2023-02-16T08:47:41.943Z,8.00
2023-02-16T08:50:16.449Z,7.60
2023-02-16T08:52:48.773Z,6.70
2023-02-16T08:55:22.557Z,7.60
2023-02-16T08:57:55.567Z,7.63
2023-02-16T09:00:33.594Z,6.45
2023-02-16T09:03:06.525Z,5.97
2023-02-16T09:05:39.446Z,6.78
2023-02-16T09:08:11.993Z,6.45
2023-02-16T09:10:45.334Z,7.90
2023-02-16T09:13:18.375Z,7.75
2023-02-16T09:15:51.016Z,9.13
2023-02-16T09:18:23.515Z,15.05
2023-02-16T09:20:56.786Z,10.23
2023-02-16T09:23:30.095Z,7.15
2023-02-16T09:26:06.514Z,7.18
2023-02-16T09:28:40.995Z,6.38
2023-02-16T09:31:16.159Z,7.20
2023-02-16T09:33:48.898Z,8.02
2023-02-16T09:36:21.888Z,6.13
2023-02-16T09:38:55.522Z,9.45
2023-02-16T09:41:36.819Z,10.90
2023-02-16T09:44:37.679Z,9.32
2023-02-16T09:47:19.612Z,8.35
2023-02-16T09:49:56.193Z,8.70
2023-02-16T09:52:35.952Z,5.32
2023-02-16T09:57:59.014Z,2.60
2023-02-16T10:00:44.025Z,3.63
2023-02-16T10:03:36.530Z,4.50
2023-02-16T10:06:27.454Z,5.53
2023-02-16T10:09:05.811Z,10.85
2023-02-16T10:11:45.948Z,14.75
2023-02-16T10:14:25.256Z,8.50
2023-02-16T10:17:07.528Z,13.68
2023-02-16T10:19:46.938Z,12.73
2023-02-16T10:22:30.382Z,11.00
2023-02-16T10:25:09.799Z,3.58
2023-02-16T10:27:44.928Z,1.88
2023-02-16T10:30:19.185Z,2.00
2023-02-16T10:32:56.758Z,1.20
2023-02-16T10:35:37.785Z,1.73
2023-02-16T10:38:17.637Z,1.27
2023-02-16T10:40:59.020Z,1.23
2023-02-16T10:43:41.792Z,1.30
2023-02-16T10:46:21.770Z,1.73
2023-02-16T10:48:55.913Z,1.20
2023-02-16T10:51:32.557Z,1.52
2023-02-16T10:54:10.442Z,1.15
2023-02-16T10:56:50.041Z,1.63
2023-02-16T10:59:24.203Z,1.23
2023-02-16T11:01:58.412Z,1.35
2023-02-16T11:04:36.057Z,0.82
2023-02-16T11:07:10.368Z,0.98
2023-02-16T11:09:44.500Z,1.23
2023-02-16T11:12:26.891Z,1.10
2023-02-16T11:15:02.898Z,1.33
2023-02-16T11:17:49.510Z,1.35
2023-02-16T11:20:28.487Z,1.02
2023-02-16T11:23:14.417Z,1.92
2023-02-16T11:25:55.464Z,3.08
2023-02-16T11:28:32.554Z,1.73
2023-02-16T11:31:13.723Z,1.45
2023-02-16T11:33:57.386Z,1.55
2023-02-16T11:36:34.818Z,3.03
2023-02-16T11:39:16.955Z,1.33
2023-02-16T11:41:51.500Z,1.27
2023-02-16T11:44:28.798Z,1.77
2023-02-16T11:47:04.107Z,1.67
2023-02-16T11:49:39.336Z,1.20
2023-02-16T11:52:26.463Z,1.50
2023-02-16T11:55:01.634Z,2.28
2023-02-16T11:57:36.724Z,1.50
2023-02-16T12:00:16.068Z,1.40
2023-02-16T12:03:18.474Z,3.30
2023-02-16T12:06:06.272Z,1.83
2023-02-16T12:09:01.863Z,1.17
2023-02-16T12:11:44.811Z,1.55
2023-02-16T12:14:28.701Z,1.83
2023-02-16T12:17:18.640Z,2.13
2023-02-16T12:22:37.317Z,2.85
2023-02-16T12:25:23.238Z,1.10
2023-02-16T12:28:05.293Z,1.52
2023-02-16T12:30:52.375Z,2.00
2023-02-16T12:33:38.363Z,2.28
2023-02-16T12:36:52.639Z,2.13
2023-02-16T12:39:31.476Z,2.85
2023-02-16T12:42:23.488Z,1.90
2023-02-16T12:44:59.320Z,1.98
2023-02-16T12:47:37.234Z,1.20
2023-02-16T12:50:18.268Z,1.55
2023-02-16T12:52:55.138Z,2.00
2023-02-16T12:55:32.511Z,1.42
2023-02-16T12:58:17.138Z,1.73
2023-02-16T13:00:52.837Z,3.67
2023-02-16T13:03:33.323Z,1.70
2023-02-16T13:06:14.432Z,1.35
2023-02-16T13:08:52.704Z,2.40
2023-02-16T13:11:30.198Z,3.03
2023-02-16T13:14:06.518Z,3.45
2023-02-16T13:16:44.827Z,3.72
2023-02-16T13:19:17.820Z,5.40
2023-02-16T13:22:13.641Z,7.68
2023-02-16T13:24:58.965Z,5.07
2023-02-16T13:27:42.217Z,3.97
2023-02-16T13:30:54.230Z,2.08
2023-02-16T13:33:49.313Z,1.95
2023-02-16T13:36:41.861Z,2.33
2023-02-16T13:39:30.086Z,5.20
2023-02-16T13:42:37.799Z,3.03
2023-02-16T13:45:17.743Z,2.50
2023-02-16T13:47:52.893Z,2.00
2023-02-16T13:50:30.314Z,2.88
2023-02-16T13:53:17.181Z,4.03
2023-02-16T13:56:10.881Z,2.63
2023-02-16T13:58:43.945Z,2.00
2023-02-16T14:01:39.700Z,3.05
2023-02-16T14:04:40.678Z,2.38
2023-02-16T14:07:32.561Z,2.78
2023-02-16T14:10:12.366Z,2.17
2023-02-16T14:12:44.760Z,5.45
2023-02-16T14:15:20.254Z,3.50
2023-02-16T14:17:52.719Z,3.30
2023-02-16T14:20:29.128Z,5.18
2023-02-16T14:23:01.784Z,8.18
2023-02-16T14:25:39.309Z,4.40
2023-02-16T14:28:45.047Z,4.68
2023-02-16T14:31:22.141Z,5.38
2023-02-16T14:34:03.471Z,2.90
2023-02-16T14:37:26.995Z,4.78
2023-02-16T14:40:21.577Z,4.15
2023-02-16T14:42:57.908Z,6.97
2023-02-16T14:45:55.396Z,7.00
2023-02-16T14:48:47.726Z,6.40
2023-02-16T14:51:50.266Z,6.50
2023-02-16T14:54:47.082Z,11.73
2023-02-16T14:57:23.654Z,7.07
2023-02-16T15:00:00.209Z,6.05
2023-02-16T15:02:35.403Z,5.53
2023-02-16T15:05:17.067Z,10.45
2023-02-16T15:07:52.019Z,14.35
2023-02-16T15:10:27.822Z,15.73
2023-02-16T15:13:00.427Z,9.23
2023-02-16T15:15:43.399Z,18.88
2023-02-16T15:18:19.370Z,18.17
2023-02-16T15:20:56.653Z,14.32
2023-02-16T15:23:31.612Z,19.67
2023-02-16T15:26:07.629Z,18.45
2023-02-16T15:28:41.433Z,18.27
2023-02-16T15:31:17.329Z,10.73
2023-02-16T15:33:56.300Z,11.43
2023-02-16T15:36:34.644Z,11.95
2023-02-16T15:39:09.046Z,11.52
2023-02-16T15:41:45.200Z,19.42
2023-02-16T15:44:29.124Z,19.05
2023-02-16T15:47:08.499Z,11.40
2023-02-16T15:49:41.328Z,11.50
2023-02-16T15:52:17.718Z,7.05
2023-02-16T15:54:50.491Z,8.25
2023-02-16T15:57:30.047Z,5.53
2023-02-16T16:00:08.354Z,13.20
2023-02-16T16:02:49.093Z,11.82
2023-02-16T16:05:24.452Z,11.88
2023-02-16T16:08:00.056Z,19.05
2023-02-16T16:10:35.746Z,15.15
2023-02-16T16:13:17.466Z,19.73
2023-02-16T16:15:50.953Z,23.80
2023-02-16T16:18:42.571Z,17.70
2023-02-16T16:21:22.233Z,14.02
2023-02-16T16:24:04.411Z,27.58
2023-02-16T16:26:52.409Z,20.83
2023-02-16T16:29:34.342Z,17.50
2023-02-16T16:32:18.020Z,15.15
2023-02-16T16:34:51.041Z,18.02
2023-02-16T16:37:28.846Z,14.43
2023-02-16T16:40:05.857Z,14.00
2023-02-16T16:42:38.737Z,15.43
2023-02-16T16:45:36.749Z,11.32
2023-02-16T16:48:14.465Z,9.48
2023-02-16T16:50:48.306Z,6.78
2023-02-16T16:53:45.064Z,8.85
2023-02-16T16:56:18.401Z,4.88
2023-02-16T16:58:51.835Z,6.72
2023-02-16T17:01:26.347Z,7.38
2023-02-16T17:03:59.264Z,8.63
2023-02-16T17:06:31.742Z,8.57
2023-02-16T17:09:05.016Z,8.30
2023-02-16T17:11:38.413Z,11.82
2023-02-16T17:14:16.023Z,9.63
2023-02-16T17:16:50.540Z,11.82
2023-02-16T17:19:23.559Z,10.70
2023-02-16T17:21:56.339Z,15.50
2023-02-16T17:24:28.649Z,14.95
2023-02-16T17:27:01.873Z,26.55
2023-02-16T17:29:34.245Z,23.55
2023-02-16T17:32:06.771Z,19.13
2023-02-16T17:34:39.149Z,20.27
2023-02-16T17:37:11.866Z,19.13
2023-02-16T17:39:44.141Z,15.43
2023-02-16T17:42:17.205Z,11.63
2023-02-16T17:44:49.540Z,9.27
2023-02-16T17:47:22.293Z,9.70
2023-02-16T17:49:54.622Z,10.13
2023-02-16T17:52:27.098Z,15.73
2023-02-16T17:54:59.465Z,9.68
2023-02-16T17:57:32.498Z,13.82
2023-02-16T18:00:07.558Z,14.65
2023-02-16T18:02:39.926Z,11.13
2023-02-16T18:05:12.381Z,11.93
2023-02-16T18:07:44.771Z,13.40
2023-02-16T18:10:31.345Z,13.82
2023-02-16T18:13:04.884Z,10.95
2023-02-16T18:15:38.161Z,11.43
2023-02-16T18:18:12.239Z,11.93
2023-02-16T18:20:44.874Z,10.57
2023-02-16T18:23:17.695Z,9.90
2023-02-16T18:25:50.138Z,12.85
2023-02-16T18:28:27.952Z,12.20
2023-02-16T18:31:01.026Z,11.93
2023-02-16T18:33:33.969Z,26.52
2023-02-16T18:36:07.499Z,22.98
2023-02-16T18:38:39.976Z,31.40
2023-02-16T18:41:13.185Z,58.22
2023-02-16T18:43:46.211Z,70.55
2023-02-16T18:46:18.693Z,77.03
2023-02-16T18:48:51.134Z,78.30
2023-02-16T18:51:25.326Z,93.75
2023-02-16T18:53:57.916Z,156.93
2023-02-16T18:56:30.370Z,210.85
2023-02-16T18:59:03.882Z,207.80
2023-02-16T19:01:36.352Z,164.63
2023-02-16T19:04:09.103Z,67.80
2023-02-16T19:06:41.759Z,49.70
2023-02-16T19:09:14.167Z,52.15
2023-02-16T19:11:46.934Z,95.75
2023-02-16T19:14:20.410Z,116.72
2023-02-16T19:16:52.789Z,88.82
2023-02-16T19:19:25.210Z,79.90
2023-02-16T19:21:57.591Z,66.25
2023-02-16T19:24:30.688Z,41.63
2023-02-16T19:27:03.344Z,44.38
2023-02-16T19:29:36.558Z,46.08
2023-02-16T19:32:08.970Z,30.08
2023-02-16T19:34:41.365Z,34.17
2023-02-16T19:37:14.216Z,41.28
2023-02-16T19:39:46.680Z,44.70
2023-02-16T19:42:20.329Z,38.85
2023-02-16T19:44:53.744Z,37.60
2023-02-16T19:47:26.150Z,28.90
2023-02-16T19:49:58.670Z,27.75
2023-02-16T19:52:31.079Z,25.05
2023-02-16T19:55:03.730Z,26.52
2023-02-16T19:57:36.093Z,35.70
2023-02-16T20:00:12.747Z,32.40
2023-02-16T20:02:45.107Z,27.15
2023-02-16T20:05:17.753Z,19.77
2023-02-16T20:07:50.090Z,25.65
2023-02-16T20:10:22.524Z,29.23
2023-02-16T20:12:54.896Z,23.42
2023-02-16T20:15:28.179Z,27.75
2023-02-16T20:18:00.960Z,19.38
2023-02-16T20:20:33.505Z,19.20
2023-02-16T20:23:06.598Z,20.40
2023-02-16T20:25:39.786Z,21.67
2023-02-16T20:28:12.159Z,19.73
2023-02-16T20:30:45.473Z,23.88
2023-02-16T20:33:18.948Z,22.17
2023-02-16T20:35:51.951Z,19.48
2023-02-16T20:38:24.321Z,17.45
2023-02-16T20:40:56.787Z,16.70
2023-02-16T20:43:29.749Z,17.73
2023-02-16T20:46:03.671Z,20.13
2023-02-16T20:48:36.197Z,16.80
2023-02-16T20:51:08.920Z,12.48
2023-02-16T20:53:41.394Z,16.60
2023-02-16T20:56:16.726Z,16.52
2023-02-16T20:58:50.661Z,14.77
2023-02-16T21:01:26.318Z,17.00
2023-02-16T21:03:59.941Z,14.20
2023-02-16T21:06:33.361Z,15.02
2023-02-16T21:09:07.796Z,16.25
2023-02-16T21:11:40.367Z,14.90
2023-02-16T21:14:13.103Z,16.05
2023-02-16T21:16:46.076Z,18.15
2023-02-16T21:19:23.306Z,15.35
2023-02-16T21:21:55.980Z,15.55
2023-02-16T21:24:28.500Z,18.02
2023-02-16T21:27:01.517Z,20.35
2023-02-16T21:29:33.930Z,17.67
2023-02-16T21:32:07.227Z,17.75
2023-02-16T21:34:39.687Z,18.48
2023-02-16T21:37:12.204Z,15.27
2023-02-16T21:40:02.834Z,15.68
2023-02-16T21:42:35.458Z,8.98
2023-02-16T21:45:16.453Z,9.10
2023-02-16T21:48:07.989Z,4.57
2023-02-16T21:50:41.387Z,6.72
2023-02-16T21:53:13.867Z,9.88
2023-02-16T21:56:04.991Z,11.65
2023-02-16T21:58:37.506Z,11.40
2023-02-16T22:01:10.098Z,11.57
2023-02-16T22:03:43.154Z,8.88
2023-02-16T22:06:15.839Z,10.30
2023-02-16T22:08:48.521Z,10.27
2023-02-16T22:11:21.459Z,9.43
2023-02-16T22:13:54.762Z,8.85
2023-02-16T22:16:29.183Z,9.00
2023-02-16T22:19:07.250Z,8.00
2023-02-16T22:21:42.438Z,8.65
2023-02-16T22:24:17.516Z,8.60
2023-02-16T22:26:50.589Z,18.48
2023-02-16T22:29:23.201Z,11.15
2023-02-16T22:31:55.602Z,6.00
2023-02-16T22:34:28.762Z,5.95
2023-02-16T22:37:01.754Z,5.63
2023-02-16T22:39:34.067Z,5.05
2023-02-16T22:42:06.380Z,6.13
2023-02-16T22:44:38.760Z,7.57
2023-02-16T22:47:11.107Z,6.20
2023-02-16T22:49:44.154Z,4.43
2023-02-16T22:52:16.501Z,4.97
2023-02-16T22:54:50.811Z,4.43
2023-02-16T22:57:23.186Z,6.07
2023-02-16T22:59:55.589Z,4.93
2023-02-16T23:02:28.034Z,6.43
2023-02-16T23:05:01.504Z,7.35
2023-02-16T23:07:35.136Z,5.97
2023-02-16T23:10:08.107Z,7.70
2023-02-16T23:12:40.502Z,5.82
2023-02-16T23:15:12.817Z,5.28
2023-02-16T23:17:45.197Z,7.07
2023-02-16T23:20:18.395Z,5.15
2023-02-16T23:22:50.846Z,4.78
2023-02-16T23:25:35.247Z,5.10
2023-02-16T23:28:07.648Z,3.92
2023-02-16T23:30:42.227Z,2.78
2023-02-16T23:33:14.673Z,5.80
2023-02-16T23:35:47.653Z,5.43
2023-02-16T23:38:20.147Z,4.85
2023-02-16T23:40:56.582Z,4.65
2023-02-16T23:43:29.669Z,5.40
2023-02-16T23:46:02.349Z,3.55
2023-02-16T23:48:35.098Z,4.07
2023-02-16T23:51:09.453Z,4.68
2023-02-16T23:53:43.044Z,4.57
2023-02-16T23:56:17.465Z,4.70
2023-02-16T23:58:50.328Z,4.85
